createdAt,value
2022-12-06T00:01:47.949Z,25.77
2022-12-06T00:04:16.139Z,26.17
2022-12-06T00:06:48.824Z,28.53
2022-12-06T00:09:22.430Z,30.70
2022-12-06T00:11:49.517Z,29.90
2022-12-06T00:14:16.565Z,29.77
2022-12-06T00:16:43.312Z,29.00
2022-12-06T00:19:12.960Z,28.83
2022-12-06T00:21:39.901Z,30.60
2022-12-06T00:24:11.918Z,29.77
2022-12-06T00:26:43.713Z,28.53
2022-12-06T00:29:19.746Z,29.57
2022-12-06T00:31:46.613Z,30.33
2022-12-06T00:34:13.143Z,31.70
2022-12-06T00:36:41.682Z,30.03
2022-12-06T00:39:11.274Z,31.57
2022-12-06T00:41:38.650Z,31.93
2022-12-06T00:44:05.374Z,30.37
2022-12-06T00:46:33.293Z,29.53
2022-12-06T00:49:02.054Z,28.77
2022-12-06T00:51:30.576Z,30.27
2022-12-06T00:53:58.674Z,28.20
2022-12-06T00:56:25.643Z,28.27
2022-12-06T00:58:52.073Z,28.33
2022-12-06T01:01:18.617Z,26.17
2022-12-06T01:03:45.784Z,26.27
2022-12-06T01:06:15.312Z,26.20
2022-12-06T01:08:42.868Z,23.63
2022-12-06T01:11:09.713Z,25.07
2022-12-06T01:13:36.656Z,24.57
2022-12-06T01:16:06.812Z,25.33
2022-12-06T01:18:33.460Z,25.50
2022-12-06T01:21:04.912Z,23.27
2022-12-06T01:23:31.278Z,24.13
2022-12-06T01:25:57.634Z,23.47
2022-12-06T01:28:23.992Z,23.40
2022-12-06T01:30:50.429Z,24.40
2022-12-06T01:33:16.895Z,24.53
2022-12-06T01:35:43.282Z,24.27
2022-12-06T01:38:10.681Z,25.20
2022-12-06T01:40:42.952Z,25.00
2022-12-06T01:43:38.936Z,25.77
2022-12-06T01:46:30.246Z,22.27
2022-12-06T01:49:06.338Z,23.00
2022-12-06T01:51:33.262Z,24.07
2022-12-06T01:54:03.617Z,22.90
2022-12-06T01:56:30.385Z,22.80
2022-12-06T01:58:58.948Z,22.90
2022-12-06T02:01:28.771Z,22.53
2022-12-06T02:03:58.493Z,23.00
2022-12-06T02:06:24.969Z,23.50
2022-12-06T02:08:56.243Z,23.17
2022-12-06T02:11:22.847Z,23.33
2022-12-06T02:13:49.918Z,22.53
2022-12-06T02:16:28.596Z,23.87
2022-12-06T02:19:13.066Z,24.30
2022-12-06T02:22:10.732Z,24.83
2022-12-06T02:24:59.038Z,24.40
2022-12-06T02:27:56.415Z,22.97
2022-12-06T02:30:47.151Z,23.53
2022-12-06T02:33:25.822Z,24.37
2022-12-06T02:36:07.508Z,26.20
2022-12-06T02:38:57.496Z,22.53
2022-12-06T02:41:47.664Z,25.63
2022-12-06T02:44:23.882Z,22.87
2022-12-06T02:46:53.079Z,23.57
2022-12-06T02:49:22.350Z,23.63
2022-12-06T02:51:51.300Z,23.27
2022-12-06T02:54:18.789Z,23.40
2022-12-06T02:56:45.135Z,22.80
2022-12-06T02:59:11.484Z,23.90
2022-12-06T03:01:43.459Z,22.77
2022-12-06T03:04:47.329Z,23.30
2022-12-06T03:07:38.264Z,21.67
2022-12-06T03:10:32.480Z,22.97
2022-12-06T03:13:14.678Z,22.63
2022-12-06T03:15:56.035Z,22.83
2022-12-06T03:18:32.042Z,23.43
2022-12-06T03:21:05.383Z,23.53
2022-12-06T03:23:40.305Z,23.67
2022-12-06T03:26:10.458Z,23.10
2022-12-06T03:28:38.793Z,23.83
2022-12-06T03:31:13.720Z,24.53
2022-12-06T03:33:45.179Z,23.33
2022-12-06T03:36:14.477Z,24.63
2022-12-06T03:38:53.812Z,23.00
2022-12-06T03:41:24.749Z,22.33
2022-12-06T03:43:51.329Z,25.13
2022-12-06T03:46:23.609Z,25.87
2022-12-06T03:48:55.609Z,24.17
2022-12-06T03:51:26.423Z,23.20
2022-12-06T03:53:56.269Z,25.77
2022-12-06T03:56:23.471Z,22.40
2022-12-06T03:58:50.284Z,23.13
2022-12-06T04:01:16.813Z,23.67
2022-12-06T04:03:43.295Z,24.70
2022-12-06T04:06:11.169Z,22.80
2022-12-06T04:08:38.165Z,22.10
2022-12-06T04:11:04.958Z,23.53
2022-12-06T04:13:31.863Z,23.00
2022-12-06T04:16:00.350Z,21.40
2022-12-06T04:18:27.158Z,22.40
2022-12-06T04:21:37.873Z,23.00
2022-12-06T04:24:09.587Z,20.67
2022-12-06T04:26:35.933Z,21.53
2022-12-06T04:29:20.554Z,22.37
2022-12-06T04:32:05.294Z,21.57
2022-12-06T04:34:50.160Z,21.30
2022-12-06T04:37:34.917Z,22.63
2022-12-06T04:40:01.611Z,19.70
2022-12-06T04:42:46.494Z,22.97
2022-12-06T04:45:12.815Z,20.83
2022-12-06T04:47:39.201Z,21.10
2022-12-06T04:50:06.221Z,22.53
2022-12-06T04:52:35.723Z,20.27
2022-12-06T04:55:03.973Z,19.27
2022-12-06T04:57:30.378Z,21.57
2022-12-06T04:59:56.734Z,20.23
2022-12-06T05:02:23.101Z,24.10
2022-12-06T05:04:49.461Z,20.77
2022-12-06T05:07:15.825Z,21.47
2022-12-06T05:09:42.530Z,23.33
2022-12-06T05:12:09.005Z,22.27
2022-12-06T05:14:35.332Z,21.50
2022-12-06T05:17:01.678Z,22.50
2022-12-06T05:19:28.034Z,22.60
2022-12-06T05:21:54.407Z,22.70
2022-12-06T05:24:20.931Z,21.93
2022-12-06T05:26:47.305Z,22.40
2022-12-06T05:29:13.757Z,21.87
2022-12-06T05:31:40.215Z,21.00
2022-12-06T05:34:06.565Z,21.87
2022-12-06T05:36:32.925Z,20.87
2022-12-06T05:38:59.281Z,20.90
2022-12-06T05:41:25.734Z,19.83
2022-12-06T05:43:53.532Z,19.03
2022-12-06T05:46:20.283Z,20.30
2022-12-06T05:48:46.921Z,18.77
2022-12-06T05:51:13.537Z,18.47
2022-12-06T05:53:40.748Z,18.70
2022-12-06T05:56:09.365Z,18.43
2022-12-06T05:58:36.613Z,17.23
2022-12-06T06:01:03.199Z,16.50
2022-12-06T06:03:29.718Z,17.73
2022-12-06T06:05:59.225Z,17.03
2022-12-06T06:08:26.698Z,18.63
2022-12-06T06:10:53.540Z,19.20
2022-12-06T06:13:20.448Z,17.33
2022-12-06T06:15:48.951Z,17.73
2022-12-06T06:18:16.346Z,17.30
2022-12-06T06:20:47.703Z,15.00
2022-12-06T06:23:14.046Z,16.80
2022-12-06T06:25:40.601Z,15.90
2022-12-06T06:28:06.924Z,16.77
2022-12-06T06:30:33.262Z,18.63
2022-12-06T06:32:59.634Z,18.17
2022-12-06T06:35:26.124Z,17.27
2022-12-06T06:37:52.490Z,15.80
2022-12-06T06:40:19.211Z,16.33
2022-12-06T06:42:45.581Z,17.07
2022-12-06T06:45:11.936Z,17.73
2022-12-06T06:47:38.313Z,17.40
2022-12-06T06:50:06.098Z,17.20
2022-12-06T06:52:32.866Z,17.67
2022-12-06T06:54:59.309Z,14.70
2022-12-06T06:57:25.662Z,12.37
2022-12-06T06:59:52.010Z,12.77
2022-12-06T07:02:19.115Z,14.73
2022-12-06T07:04:45.607Z,14.87
2022-12-06T07:07:17.877Z,14.40
2022-12-06T07:09:47.500Z,14.83
2022-12-06T07:12:13.924Z,14.43
2022-12-06T07:14:40.323Z,13.10
2022-12-06T07:17:06.808Z,13.77
2022-12-06T07:19:33.170Z,13.13
2022-12-06T07:21:59.506Z,14.80
2022-12-06T07:24:25.867Z,15.10
2022-12-06T07:26:52.283Z,12.87
2022-12-06T07:29:18.597Z,13.57
2022-12-06T07:31:44.980Z,13.50
2022-12-06T07:34:11.381Z,13.43
2022-12-06T07:36:37.768Z,13.73
2022-12-06T07:39:07.805Z,13.60
2022-12-06T07:41:55.425Z,12.23
2022-12-06T07:45:00.010Z,13.67
2022-12-06T07:47:42.448Z,13.37
2022-12-06T07:50:17.541Z,13.40
2022-12-06T07:52:45.849Z,12.83
2022-12-06T07:55:13.028Z,12.27
2022-12-06T07:57:43.342Z,13.37
2022-12-06T08:00:14.112Z,13.50
2022-12-06T08:02:40.479Z,11.33
2022-12-06T08:05:07.571Z,11.30
2022-12-06T08:07:33.957Z,11.33
2022-12-06T08:10:00.763Z,11.63
2022-12-06T08:12:31.905Z,11.77
2022-12-06T08:15:00.043Z,10.93
2022-12-06T08:17:27.461Z,10.73
2022-12-06T08:19:53.993Z,11.20
2022-12-06T08:22:20.341Z,11.03
2022-12-06T08:24:46.708Z,11.00
2022-12-06T08:27:13.053Z,10.23
2022-12-06T08:29:39.428Z,9.70
2022-12-06T08:32:05.855Z,9.90
2022-12-06T08:34:32.219Z,10.00
2022-12-06T08:37:03.155Z,9.60
2022-12-06T08:39:29.999Z,10.63
2022-12-06T08:41:57.995Z,10.03
2022-12-06T08:44:29.271Z,10.23
2022-12-06T08:46:56.638Z,9.37
2022-12-06T08:49:25.069Z,10.03
2022-12-06T08:51:52.599Z,9.47
2022-12-06T08:54:23.121Z,8.87
2022-12-06T08:56:50.664Z,9.07
2022-12-06T08:59:17.469Z,9.13
2022-12-06T09:01:44.624Z,8.97
2022-12-06T09:04:11.894Z,9.43
2022-12-06T09:06:40.395Z,8.70
2022-12-06T09:09:08.081Z,8.67
2022-12-06T09:11:34.419Z,7.97
2022-12-06T09:14:00.836Z,10.00
2022-12-06T09:16:27.308Z,8.33
2022-12-06T09:18:53.705Z,9.63
2022-12-06T09:21:22.653Z,7.77
2022-12-06T09:23:49.930Z,7.77
2022-12-06T09:26:16.683Z,8.57
2022-12-06T09:28:51.550Z,9.10
2022-12-06T09:31:19.043Z,8.60
2022-12-06T09:33:45.952Z,9.77
2022-12-06T09:36:17.707Z,7.90
2022-12-06T09:38:47.628Z,8.30
2022-12-06T09:41:24.076Z,8.17
2022-12-06T09:44:13.605Z,9.97
2022-12-06T09:47:04.366Z,8.30
2022-12-06T09:49:30.705Z,8.40
2022-12-06T09:52:15.515Z,8.00
2022-12-06T09:54:52.597Z,7.77
2022-12-06T09:57:48.905Z,9.20
2022-12-06T10:00:23.282Z,8.10
2022-12-06T10:03:14.789Z,8.00
2022-12-06T10:05:58.130Z,8.00
2022-12-06T10:08:33.497Z,7.40
2022-12-06T10:11:09.044Z,7.70
2022-12-06T10:14:04.839Z,8.47
2022-12-06T10:16:51.462Z,8.70
2022-12-06T10:19:54.644Z,6.93
2022-12-06T10:22:41.063Z,7.40
2022-12-06T10:25:16.104Z,8.33
2022-12-06T10:27:52.348Z,8.33
2022-12-06T10:30:19.363Z,8.53
2022-12-06T10:33:07.091Z,7.10
2022-12-06T10:35:58.715Z,7.37
2022-12-06T10:38:33.721Z,8.33
2022-12-06T10:41:23.701Z,7.93
2022-12-06T10:43:57.198Z,8.07
2022-12-06T10:46:50.774Z,8.53
2022-12-06T10:49:41.566Z,7.07
2022-12-06T10:52:20.356Z,8.47
2022-12-06T10:54:57.096Z,8.47
2022-12-06T10:57:31.951Z,6.87
2022-12-06T11:00:15.889Z,7.10
2022-12-06T11:03:11.052Z,7.27
2022-12-06T11:05:43.092Z,6.80
2022-12-06T11:08:33.807Z,7.77
2022-12-06T11:11:03.099Z,7.80
2022-12-06T11:13:37.879Z,8.17
2022-12-06T11:16:11.073Z,8.27
2022-12-06T11:18:38.133Z,8.90
2022-12-06T11:21:19.456Z,8.80
2022-12-06T11:24:00.862Z,7.70
2022-12-06T11:26:38.674Z,7.13
2022-12-06T11:29:10.017Z,7.90
2022-12-06T11:31:50.382Z,7.53
2022-12-06T11:34:38.037Z,7.33
2022-12-06T11:37:06.171Z,7.20
2022-12-06T11:39:33.819Z,6.47
2022-12-06T11:42:03.064Z,6.07
2022-12-06T11:44:49.457Z,6.17
2022-12-06T11:47:20.294Z,6.33
2022-12-06T11:49:47.886Z,6.53
2022-12-06T11:52:33.807Z,6.47
2022-12-06T11:55:19.356Z,5.83
2022-12-06T11:57:48.553Z,5.60
2022-12-06T12:00:15.472Z,5.33
2022-12-06T12:02:44.043Z,6.07
2022-12-06T12:05:16.429Z,5.10
2022-12-06T12:07:48.027Z,6.20
2022-12-06T12:10:33.341Z,5.17
2022-12-06T12:13:33.555Z,5.03
2022-12-06T12:16:03.426Z,5.17
2022-12-06T12:18:37.434Z,5.13
2022-12-06T12:21:06.579Z,5.43
2022-12-06T12:23:42.103Z,5.57
2022-12-06T12:26:20.998Z,4.77
2022-12-06T12:29:07.828Z,4.70
2022-12-06T12:31:47.734Z,3.90
2022-12-06T12:34:23.008Z,3.43
2022-12-06T12:36:52.706Z,4.87
2022-12-06T12:39:40.261Z,3.87
2022-12-06T12:42:27.795Z,6.23
2022-12-06T12:44:59.372Z,10.37
2022-12-06T12:47:26.789Z,5.97
2022-12-06T12:50:03.221Z,5.07
2022-12-06T12:52:38.399Z,4.50
2022-12-06T12:55:21.961Z,4.70
2022-12-06T12:57:51.437Z,4.70
2022-12-06T13:00:45.995Z,4.40
2022-12-06T13:03:54.009Z,5.30
2022-12-06T13:06:29.726Z,4.57
2022-12-06T13:08:59.847Z,5.03
2022-12-06T13:11:28.256Z,5.00
2022-12-06T13:13:57.499Z,5.43
2022-12-06T13:16:29.403Z,4.13
2022-12-06T13:18:58.254Z,4.13
2022-12-06T13:21:34.464Z,4.47
2022-12-06T13:24:09.908Z,4.57
2022-12-06T13:26:48.224Z,4.70
2022-12-06T13:29:38.792Z,5.07
2022-12-06T13:32:26.268Z,4.90
2022-12-06T13:35:01.150Z,4.57
2022-12-06T13:37:42.918Z,4.30
2022-12-06T13:40:35.016Z,4.97
2022-12-06T13:43:03.595Z,4.97
2022-12-06T13:46:14.850Z,4.83
2022-12-06T13:49:03.488Z,5.37
2022-12-06T13:51:32.899Z,5.50
2022-12-06T13:54:05.284Z,4.60
2022-12-06T13:56:34.673Z,4.33
2022-12-06T13:59:25.072Z,4.23
2022-12-06T14:01:53.486Z,4.73
2022-12-06T14:09:47.884Z,4.87
2022-12-06T14:12:19.494Z,7.13
2022-12-06T14:14:59.343Z,8.67
2022-12-06T14:18:01.651Z,4.27
2022-12-06T14:20:28.880Z,5.10
2022-12-06T14:22:55.935Z,5.00
2022-12-06T14:25:28.582Z,4.87
2022-12-06T14:28:04.252Z,4.17
2022-12-06T14:30:30.962Z,4.73
2022-12-06T14:32:59.009Z,4.37
2022-12-06T14:35:35.757Z,4.00
2022-12-06T14:38:22.380Z,4.77
2022-12-06T14:41:07.646Z,4.37
2022-12-06T14:43:34.703Z,4.93
2022-12-06T14:46:04.929Z,6.03
2022-12-06T14:48:52.931Z,6.30
2022-12-06T14:51:23.593Z,5.77
2022-12-06T14:53:50.532Z,5.63
2022-12-06T14:56:25.036Z,5.30
2022-12-06T14:58:52.211Z,5.93
2022-12-06T15:01:25.449Z,6.27
2022-12-06T15:04:06.914Z,6.63
2022-12-06T15:06:36.109Z,8.20
2022-12-06T15:09:11.969Z,7.90
2022-12-06T15:11:59.373Z,8.70
2022-12-06T15:14:29.452Z,7.27
2022-12-06T15:16:58.843Z,7.60
2022-12-06T15:19:25.765Z,7.37
2022-12-06T15:21:53.498Z,7.20
2022-12-06T15:24:22.779Z,7.63
2022-12-06T15:26:49.757Z,6.63
2022-12-06T15:29:16.534Z,6.57
2022-12-06T15:31:49.556Z,6.77
2022-12-06T15:34:28.354Z,6.97
2022-12-06T15:37:15.545Z,7.00
2022-12-06T15:39:43.495Z,6.57
2022-12-06T15:42:14.879Z,6.97
2022-12-06T15:44:47.237Z,8.13
2022-12-06T15:47:15.532Z,6.83
2022-12-06T15:49:42.270Z,8.23
2022-12-06T15:52:22.805Z,8.20
2022-12-06T15:54:49.200Z,7.47
2022-12-06T15:57:15.635Z,7.57
2022-12-06T15:59:41.944Z,7.80
2022-12-06T16:02:16.569Z,6.93
2022-12-06T16:04:43.917Z,6.83
2022-12-06T16:07:10.846Z,6.20
2022-12-06T16:09:37.520Z,6.67
2022-12-06T16:12:04.296Z,6.77
2022-12-06T16:14:30.628Z,7.77
2022-12-06T16:16:56.940Z,6.83
2022-12-06T16:19:23.257Z,8.03
2022-12-06T16:21:54.885Z,7.90
2022-12-06T16:24:21.996Z,10.03
2022-12-06T16:26:48.772Z,9.33
2022-12-06T16:29:20.385Z,8.37
2022-12-06T16:31:47.601Z,8.70
2022-12-06T16:34:14.054Z,9.47
2022-12-06T16:37:03.492Z,9.37
2022-12-06T16:39:33.485Z,8.90
2022-12-06T16:42:01.043Z,9.27
2022-12-06T16:44:27.647Z,9.60
2022-12-06T16:46:54.115Z,11.47
2022-12-06T16:52:10.139Z,10.03
2022-12-06T16:54:38.849Z,10.93
2022-12-06T16:57:05.174Z,10.00
2022-12-06T16:59:31.480Z,10.90
2022-12-06T17:01:57.912Z,11.77
2022-12-06T17:04:25.918Z,10.90
2022-12-06T17:06:52.231Z,12.90
2022-12-06T17:09:18.824Z,11.27
2022-12-06T17:12:03.052Z,13.60
2022-12-06T17:14:29.961Z,12.60
2022-12-06T17:16:57.043Z,11.67
2022-12-06T17:19:28.104Z,12.07
2022-12-06T17:21:55.482Z,11.10
2022-12-06T17:24:23.808Z,11.47
2022-12-06T17:26:50.181Z,11.10
2022-12-06T17:29:17.329Z,11.50
2022-12-06T17:31:43.671Z,11.67
2022-12-06T17:34:13.229Z,11.37
2022-12-06T17:36:40.272Z,10.93
2022-12-06T17:39:10.527Z,12.30
2022-12-06T17:41:55.545Z,10.97
2022-12-06T17:44:21.963Z,11.63
2022-12-06T17:46:48.512Z,11.57
2022-12-06T17:49:21.076Z,11.30
2022-12-06T17:51:47.916Z,11.07
2022-12-06T17:54:15.365Z,11.27
2022-12-06T17:56:44.280Z,10.93
2022-12-06T17:59:16.295Z,11.67
2022-12-06T18:02:14.864Z,11.57
2022-12-06T18:04:30.929Z,10.33
2022-12-06T18:06:58.037Z,10.27
2022-12-06T18:09:24.495Z,10.27
2022-12-06T18:11:51.127Z,11.60
2022-12-06T18:14:17.617Z,10.07
2022-12-06T18:16:48.481Z,10.10
2022-12-06T18:19:17.633Z,10.77
2022-12-06T18:21:44.900Z,10.93
2022-12-06T18:24:21.551Z,10.73
2022-12-06T18:26:49.047Z,10.20
2022-12-06T18:29:17.753Z,9.60
2022-12-06T18:31:44.464Z,9.97
2022-12-06T18:34:12.035Z,10.37
2022-12-06T18:36:39.033Z,10.57
2022-12-06T18:39:14.136Z,10.33
2022-12-06T18:41:42.232Z,10.20
2022-12-06T18:44:09.995Z,10.67
2022-12-06T18:46:37.813Z,11.20
2022-12-06T18:49:04.205Z,10.17
2022-12-06T18:51:33.788Z,10.40
2022-12-06T18:54:02.237Z,10.93
2022-12-06T18:56:30.081Z,10.47
2022-12-06T18:59:01.354Z,10.40
2022-12-06T19:01:36.222Z,10.83
2022-12-06T19:04:04.693Z,12.00
2022-12-06T19:06:33.955Z,10.50
2022-12-06T19:09:04.823Z,10.90
2022-12-06T19:11:31.152Z,10.63
2022-12-06T19:13:59.356Z,10.80
2022-12-06T19:16:30.109Z,10.83
2022-12-06T19:18:58.562Z,11.63
2022-12-06T19:21:25.677Z,11.97
2022-12-06T19:23:54.052Z,11.20
2022-12-06T19:26:20.992Z,11.40
2022-12-06T19:28:47.699Z,10.73
2022-12-06T19:31:15.061Z,12.20
2022-12-06T19:33:43.798Z,10.20
2022-12-06T19:36:16.414Z,11.43
2022-12-06T19:38:43.759Z,12.03
2022-12-06T19:41:16.885Z,10.87
2022-12-06T19:44:02.039Z,11.57
2022-12-06T19:46:29.806Z,11.67
2022-12-06T19:49:00.162Z,11.67
2022-12-06T19:51:28.882Z,12.47
2022-12-06T19:53:57.893Z,13.53
2022-12-06T19:56:27.891Z,12.80
2022-12-06T19:58:56.521Z,11.73
2022-12-06T20:01:25.096Z,13.47
2022-12-06T20:03:54.331Z,13.20
2022-12-06T20:06:23.059Z,12.80
2022-12-06T20:08:51.096Z,14.67
2022-12-06T20:11:38.420Z,14.00
2022-12-06T20:14:07.835Z,12.37
2022-12-06T20:16:34.252Z,13.57
2022-12-06T20:19:00.634Z,12.87
2022-12-06T20:21:27.486Z,12.80
2022-12-06T20:23:53.948Z,14.17
2022-12-06T20:26:20.715Z,15.07
2022-12-06T20:28:47.917Z,15.07
2022-12-06T20:31:19.390Z,15.47
2022-12-06T20:33:46.279Z,15.80
2022-12-06T20:36:20.885Z,15.80
2022-12-06T20:38:47.461Z,14.30
2022-12-06T20:41:22.334Z,15.23
2022-12-06T20:43:49.298Z,14.27
2022-12-06T20:46:22.871Z,15.03
2022-12-06T20:48:49.367Z,15.80
2022-12-06T20:51:21.913Z,15.47
2022-12-06T20:53:49.651Z,16.30
2022-12-06T20:56:19.252Z,15.87
2022-12-06T20:58:47.289Z,14.80
2022-12-06T21:01:19.341Z,15.67
2022-12-06T21:03:46.612Z,15.30
2022-12-06T21:06:14.148Z,15.47
2022-12-06T21:08:40.680Z,15.20
2022-12-06T21:11:22.499Z,16.47
2022-12-06T21:13:54.036Z,16.37
2022-12-06T21:16:23.653Z,17.53
2022-12-06T21:18:58.002Z,15.30
2022-12-06T21:21:38.276Z,17.23
2022-12-06T21:24:07.192Z,17.03
2022-12-06T21:26:34.096Z,17.03
2022-12-06T21:29:00.692Z,18.23
2022-12-06T21:31:35.971Z,19.13
2022-12-06T21:34:02.605Z,17.53
2022-12-06T21:36:29.726Z,18.13
2022-12-06T21:38:57.031Z,17.47
2022-12-06T21:41:23.845Z,18.20
2022-12-06T21:43:50.328Z,18.63
2022-12-06T21:46:19.469Z,18.80
2022-12-06T21:48:51.159Z,18.07
2022-12-06T21:51:18.265Z,18.30
2022-12-06T21:53:45.024Z,18.50
2022-12-06T21:56:15.525Z,18.03
2022-12-06T21:58:41.856Z,18.37
2022-12-06T22:01:12.313Z,19.23
2022-12-06T22:03:39.591Z,17.33
2022-12-06T22:06:11.305Z,18.23
2022-12-06T22:08:39.528Z,18.43
2022-12-06T22:11:07.275Z,20.03
2022-12-06T22:13:34.173Z,19.60
2022-12-06T22:16:02.319Z,19.33
2022-12-06T22:18:29.145Z,19.43
2022-12-06T22:20:58.712Z,17.73
2022-12-06T22:23:25.120Z,18.10
2022-12-06T22:25:51.543Z,18.33
2022-12-06T22:28:17.937Z,20.37
2022-12-06T22:30:44.265Z,19.17
2022-12-06T22:33:10.609Z,18.97
2022-12-06T22:35:37.375Z,19.30
2022-12-06T22:38:03.686Z,18.60
2022-12-06T22:40:30.028Z,19.93
2022-12-06T22:42:56.357Z,20.17
2022-12-06T22:45:23.209Z,19.30
2022-12-06T22:47:49.586Z,20.20
2022-12-06T22:50:16.047Z,20.90
2022-12-06T22:52:42.467Z,21.00
2022-12-06T22:55:09.004Z,21.43
2022-12-06T22:57:35.307Z,20.17
2022-12-06T23:00:01.835Z,21.03
2022-12-06T23:02:28.646Z,20.27
2022-12-06T23:04:54.980Z,21.80
2022-12-06T23:07:21.294Z,21.93
2022-12-06T23:09:47.603Z,19.97
2022-12-06T23:12:13.919Z,21.17
2022-12-06T23:14:40.244Z,21.87
2022-12-06T23:17:06.532Z,21.27
2022-12-06T23:19:32.987Z,21.07
2022-12-06T23:21:59.296Z,20.30
2022-12-06T23:24:25.632Z,20.73
2022-12-06T23:26:57.717Z,22.00
2022-12-06T23:29:24.583Z,22.40
2022-12-06T23:31:50.938Z,21.97
2022-12-06T23:34:20.674Z,22.17
2022-12-06T23:36:46.995Z,23.03
2022-12-06T23:39:13.977Z,21.93
2022-12-06T23:41:40.364Z,21.80
2022-12-06T23:44:07.425Z,21.83
2022-12-06T23:46:37.270Z,20.53
2022-12-06T23:49:04.913Z,23.60
2022-12-06T23:51:37.704Z,22.27
2022-12-06T23:54:06.063Z,21.50
2022-12-06T23:56:35.442Z,21.57
2022-12-06T23:59:03.435Z,22.30
